Home > Products > Valid Products > TAF

000
FTUS43 KLOT 270900 AAA
TAFGYY
TAF AMD
KGYY 270904Z 2709/2806 30008KT P6SM SCT025 OVC060
      TEMPO 2709/2711 5SM -SHSN BKN025
     FM271400 31012G18KT P6SM VCSH BKN015 BKN030
     FM271800 31014G21KT P6SM BKN025
     FM272000 31013G20KT P6SM SCT025
     FM280100 29008KT P6SM SCT250=



000
FTUS43 KLOT 270900 AAB
TAFORD
TAF AMD
KORD 270904Z 2709/2812 31009KT P6SM SCT030 OVC080
     FM271400 31011G16KT P6SM VCSH BKN015 BKN030
     FM271800 31012G18KT P6SM BKN025
     FM272000 31011G15KT P6SM SCT025
     FM280100 29006KT P6SM SCT250=



000
FTUS43 KLOT 270900 AAB
TAFMDW
TAF AMD
KMDW 270904Z 2709/2806 32008KT P6SM SCT025 OVC070
     FM271400 31011G16KT P6SM VCSH BKN015 BKN030
     FM271800 31012G18KT P6SM BKN025
     FM272000 31011G15KT P6SM SCT025
     FM280100 29006KT P6SM SCT250=



000
FTUS43 KLOT 270900 AAA
TAFGYY
TAF AMD
KGYY 270904Z 2709/2806 30008KT P6SM SCT025 OVC060
      TEMPO 2709/2711 5SM -SHSN BKN025
     FM271400 31012G18KT P6SM VCSH BKN015 BKN030
     FM271800 31014G21KT P6SM BKN025
     FM272000 31013G20KT P6SM SCT025
     FM280100 29008KT P6SM SCT250=



000
FTUS43 KLOT 270900 AAA
TAFDPA
TAF AMD
KDPA 270904Z 2709/2806 32008KT 5SM BR SCT025 SCT080
     FM271400 31011G16KT P6SM VCSH BKN015 BKN030
     FM271800 31012G18KT P6SM BKN025
     FM272000 31011G15KT P6SM SCT025
     FM280100 29006KT P6SM SCT250=



000
FTUS43 KLOT 270900 AAA
TAFRFD
TAF AMD
KRFD 270904Z 2709/2806 33008KT 5SM BR OVC070
     FM271200 33011G16KT P6SM VCSH BKN015 BKN030
     FM271700 32012G18KT P6SM BKN025
     FM271900 31011G15KT P6SM SCT025
     FM280100 29006KT P6SM SCT250=



000
FTUS43 KLOT 270600 AAA
TAFMDW
TAF AMD
KMDW 270620Z 2706/2806 32009KT 6SM -SN BKN025
      TEMPO 2706/2708 5SM -SN
     FM271000 32008KT P6SM SCT025 SCT080
     FM271300 31011G16KT P6SM VCSH BKN015 BKN030
     FM271800 31012G18KT P6SM BKN025
     FM272000 31011G15KT P6SM SCT025
     FM280100 29006KT P6SM SCT250=



000
FTUS43 KLOT 270600 AAA
TAFORD
TAF AMD
KORD 270618Z 2706/2812 31008KT 6SM -SN BKN025
     FM270930 31008KT P6SM SCT025 SCT080
     FM271300 31011G16KT P6SM VCSH BKN015 BKN030
     FM271800 31012G18KT P6SM BKN025
     FM272000 31011G15KT P6SM SCT025
     FM280100 29006KT P6SM SCT250=



000
FTUS43 KLOT 270500 RRA
TAFMDW
TAF
KMDW 270541Z 2706/2806 32009KT P6SM VCSH BKN025
     FM271000 32008KT P6SM SCT025 SCT080
     FM271300 31011G16KT P6SM VCSH BKN015 BKN030
     FM271800 31012G18KT P6SM BKN025
     FM272000 31011G15KT P6SM SCT025
     FM280100 29006KT P6SM SCT250=



000
FTUS43 KLOT 270500 RRA
TAFGYY
TAF
KGYY 270541Z 2706/2806 29006KT 6SM -SHSN BKN025
     FM270700 31008KT P6SM BKN025
      TEMPO 2707/2709 4SM -SHSN BKN018
     FM271400 31012G18KT P6SM VCSH BKN015 BKN030
     FM271800 31014G21KT P6SM BKN025
     FM272000 31013G20KT P6SM SCT025
     FM280100 29008KT P6SM SCT250=



000
FTUS43 KLOT 270500 RRA
TAFORD
TAF
KORD 270541Z 2706/2812 31008KT P6SM BKN025
     FM270930 31008KT P6SM SCT025 SCT080
     FM271300 31011G16KT P6SM VCSH BKN015 BKN030
     FM271800 31012G18KT P6SM BKN025
     FM272000 31011G15KT P6SM SCT025
     FM280100 29006KT P6SM SCT250=



000
FTUS43 KLOT 270500 RRA
TAFRFD
TAF
KRFD 270541Z 2706/2806 33008KT P6SM SCT080 SCT250
     FM271100 33011G16KT P6SM VCSH BKN015 BKN030
     FM271700 32012G18KT P6SM BKN025
     FM271900 31011G15KT P6SM SCT025
     FM280100 29006KT P6SM SCT250=



000
FTUS43 KLOT 270500 RRA
TAFGYY
TAF
KGYY 270541Z 2706/2806 29006KT 6SM -SHSN BKN025
     FM270700 31008KT P6SM BKN025
      TEMPO 2707/2709 4SM -SHSN BKN018
     FM271400 31012G18KT P6SM VCSH BKN015 BKN030
     FM271800 31014G21KT P6SM BKN025
     FM272000 31013G20KT P6SM SCT025
     FM280100 29008KT P6SM SCT250=



000
FTUS43 KLOT 270500 RRA
TAFDPA
TAF
KDPA 270541Z 2706/2806 31008KT P6SM BKN025
     FM270900 31008KT P6SM SCT025 SCT080
     FM271300 31011G16KT P6SM VCSH BKN015 BKN030
     FM271800 31012G18KT P6SM BKN025
     FM272000 31011G15KT P6SM SCT025
     FM280100 29006KT P6SM SCT250=



000
FTUS43 KLOT 270400 AAB
TAFGYY
TAF AMD
KGYY 270447Z 2705/2724 26004KT 6SM -SHSN OVC025
     FM270800 31008KT 6SM -SHSN BKN020 OVC040
     FM271500 30012G18KT P6SM SCT018 BKN030
     FM271900 30010KT P6SM SCT025=



000
FTUS43 KLOT 270400 AAB
TAFGYY
TAF AMD
KGYY 270447Z 2705/2724 26004KT 6SM -SHSN OVC025
     FM270800 31008KT 6SM -SHSN BKN020 OVC040
     FM271500 30012G18KT P6SM SCT018 BKN030
     FM271900 30010KT P6SM SCT025=



000
FTUS43 KLOT 270400 AAB
TAFGYY
TAF AMD
KGYY 270447Z 2705/2724 26004KT 6SM -SHSN OVC025
     FM270800 31008KT 6SM -SHSN BKN020 OVC040
     FM271500 30012G18KT P6SM SCT018 BKN030
     FM271900 30010KT P6SM SCT025=



000
FTUS43 KLOT 270400 AAC
TAFMDW
TAF AMD
KMDW 270445Z 2705/2724 32008KT 6SM -SHSN OVC025
     FM270700 31008KT 6SM -SHSN BKN020 OVC040
     FM271500 30012G18KT P6SM SCT018 BKN030
     FM271900 30010KT P6SM SCT025=



000
FTUS43 KLOT 270400 AAC
TAFMDW
TAF AMD
KMDW 270445Z 2705/2724 32008KT 6SM -SHSN OVC025
     FM270700 31008KT 6SM -SHSN BKN020 OVC040
     FM271500 30012G18KT P6SM SCT018 BKN030
     FM271900 30010KT P6SM SCT025=



000
FTUS43 KLOT 270200 AAA
TAFGYY
TAF AMD
KGYY 270244Z 2703/2724 VRB03KT P6SM OVC025
     FM270800 31008KT 6SM -SHSN BKN020 OVC040
     FM271500 30012G18KT P6SM SCT018 BKN030
     FM271900 30010KT P6SM SCT025=



000
FTUS43 KLOT 270200 AAA
TAFGYY
TAF AMD
KGYY 270244Z 2703/2724 VRB03KT P6SM OVC025
     FM270800 31008KT 6SM -SHSN BKN020 OVC040
     FM271500 30012G18KT P6SM SCT018 BKN030
     FM271900 30010KT P6SM SCT025=



000
FTUS43 KLOT 270200 AAA
TAFDPA
TAF AMD
KDPA 270244Z 2703/2724 34005KT 6SM HZ OVC015
     FM270700 31008KT 6SM -SHSN BKN020 OVC040
     FM271500 30012G18KT P6SM SCT018 BKN030
     FM271900 30010KT P6SM SCT025=



000
FTUS43 KLOT 270200 AAB
TAFORD
TAF AMD
KORD 270244Z 2703/2806 33005KT P6SM OVC025
     FM270700 31008KT 6SM -SHSN BKN020 OVC040
     FM271500 30012G18KT P6SM SCT018 BKN030
     FM271900 30010KT P6SM SCT025
     FM280100 31008KT P6SM SKC=



000
FTUS43 KLOT 270200 AAB
TAFMDW
TAF AMD
KMDW 270244Z 2703/2724 32005KT P6SM OVC025
     FM270700 31008KT 6SM -SHSN BKN020 OVC040
     FM271500 30012G18KT P6SM SCT018 BKN030
     FM271900 30010KT P6SM SCT025=



000
FTUS43 KLOT 270200 AAA
TAFRFD
TAF AMD
KRFD 270244Z 2703/2724 34006KT 5SM HZ FEW009 OVC025
      TEMPO 2703/2705 BKN009
     FM270500 31008KT 6SM -SHSN BKN015 OVC025
     FM271500 30012G18KT P6SM SCT018 BKN030
     FM271900 30010KT P6SM SCT025=



000
FTUS43 KLOT 270100 AAA
TAFORD
TAF AMD
KORD 270155Z 2702/2806 34005KT P6SM OVC025
     FM270700 31008KT 6SM -SHSN BKN020 OVC040
     FM271500 30012G18KT P6SM SCT018 BKN030
     FM271900 30010KT P6SM SCT025
     FM280100 31008KT P6SM SKC=



000
FTUS43 KLOT 270100 AAA
TAFMDW
TAF AMD
KMDW 270154Z 2702/2724 04005KT 6SM -SHSN OVC025
     FM270500 34005KT P6SM OVC025
     FM270700 31008KT 6SM -SHSN BKN020 OVC040
     FM271500 30012G18KT P6SM SCT018 BKN030
     FM271900 30010KT P6SM SCT025=



000
FTUS43 KLOT 270000 RRA
TAFGYY
TAF
KGYY 270002Z 2700/2724 13003KT P6SM OVC023
     FM270800 31008KT 6SM -SHSN BKN020 OVC040
     FM271500 30012G18KT P6SM SCT018 BKN030
     FM271900 30010KT P6SM SCT025=



000
FTUS43 KLOT 270000 RRA
TAFGYY
TAF
KGYY 270002Z 2700/2724 13003KT P6SM OVC023
     FM270800 31008KT 6SM -SHSN BKN020 OVC040
     FM271500 30012G18KT P6SM SCT018 BKN030
     FM271900 30010KT P6SM SCT025=



000
FTUS43 KLOT 270000 RRA
TAFMDW
TAF
KMDW 270002Z 2700/2724 10005KT P6SM OVC022
     FM270700 31008KT 6SM -SHSN BKN020 OVC040
     FM271500 30012G18KT P6SM SCT018 BKN030
     FM271900 30010KT P6SM SCT025=



000
FTUS43 KLOT 270000 RRA
TAFDPA
TAF
KDPA 270002Z 2700/2724 10003KT P6SM OVC020
     FM270700 31008KT 6SM -SHSN BKN020 OVC040
     FM271500 30012G18KT P6SM SCT018 BKN030
     FM271900 30010KT P6SM SCT025=



000
FTUS43 KLOT 270000 RRA
TAFRFD
TAF
KRFD 270002Z 2700/2724 00000KT P6SM OVC018
     FM270200 01005KT P6SM BKN020 OVC080
     FM270500 31008KT 6SM -SHSN BKN020 OVC040
     FM271500 30012G18KT P6SM SCT018 BKN030
     FM271900 30010KT P6SM SCT025=



000
FTUS43 KLOT 270000 RRA
TAFORD
TAF
KORD 270002Z 2700/2806 10005KT P6SM OVC025
     FM270700 31008KT 6SM -SHSN BKN020 OVC040
     FM271500 30012G18KT P6SM SCT018 BKN030
     FM271900 30010KT P6SM SCT025
     FM280100 31008KT P6SM SKC=



000
FTUS43 KLOT 262200 AAB
TAFGYY
TAF AMD
KGYY 262206Z 2622/2718 10006KT P6SM OVC020
     FM270000 02006KT P6SM OVC020
     FM270800 31008KT 6SM -SHSN BKN020 OVC040
     FM271500 30012G18KT P6SM BKN018 OVC030=



000
FTUS43 KLOT 262200 AAB
TAFRFD
TAF AMD
KRFD 262206Z 2622/2718 10005KT P6SM OVC018
     FM270200 01005KT P6SM BKN020 OVC080
     FM270500 31008KT 6SM -SHSN BKN020 OVC040
     FM271500 30012G18KT P6SM BKN018 OVC030=



000
FTUS43 KLOT 262200 AAB
TAFGYY
TAF AMD
KGYY 262206Z 2622/2718 10006KT P6SM OVC020
     FM270000 02006KT P6SM OVC020
     FM270800 31008KT 6SM -SHSN BKN020 OVC040
     FM271500 30012G18KT P6SM BKN018 OVC030=



000
FTUS43 KLOT 262200 AAB
TAFMDW
TAF AMD
KMDW 262206Z 2622/2718 09005KT P6SM OVC020
     FM270000 02006KT P6SM OVC020
     FM270700 31008KT 6SM -SHSN BKN020 OVC040
     FM271500 30012G18KT P6SM BKN018 OVC030=



000
FTUS43 KLOT 262200 AAB
TAFDPA
TAF AMD
KDPA 262206Z 2622/2718 10006KT P6SM OVC020
     FM270000 02005KT P6SM OVC020
     FM270700 31008KT 6SM -SHSN BKN020 OVC040
     FM271500 30012G18KT P6SM BKN018 OVC030=



000
FTUS43 KLOT 262200 AAB
TAFORD
TAF AMD
KORD 262206Z 2622/2724 09006KT P6SM OVC020
     FM270000 01006KT P6SM OVC020
     FM270700 31008KT 6SM -SHSN BKN020 OVC040
     FM271500 30012G18KT P6SM BKN018 OVC030=



000
FTUS43 KLOT 262200 AAB
TAFGYY
TAF AMD
KGYY 262206Z 2622/2718 10006KT P6SM OVC020
     FM270000 02006KT P6SM OVC020
     FM270800 31008KT 6SM -SHSN BKN020 OVC040
     FM271500 30012G18KT P6SM BKN018 OVC030=



000
FTUS43 KLOT 262200 AAB
TAFDPA
TAF AMD
KDPA 262206Z 2622/2718 10006KT P6SM OVC020
     FM270000 02005KT P6SM OVC020
     FM270700 31008KT 6SM -SHSN BKN020 OVC040
     FM271500 30012G18KT P6SM BKN018 OVC030=



000
FTUS43 KLOT 262200 AAB
TAFRFD
TAF AMD
KRFD 262206Z 2622/2718 10005KT P6SM OVC018
     FM270200 01005KT P6SM BKN020 OVC080
     FM270500 31008KT 6SM -SHSN BKN020 OVC040
     FM271500 30012G18KT P6SM BKN018 OVC030=



000
FTUS43 KLOT 262200 AAB
TAFORD
TAF AMD
KORD 262206Z 2622/2724 09006KT P6SM OVC020
     FM270000 01006KT P6SM OVC020
     FM270700 31008KT 6SM -SHSN BKN020 OVC040
     FM271500 30012G18KT P6SM BKN018 OVC030=



000
FTUS43 KLOT 262200 AAB
TAFGYY
TAF AMD
KGYY 262206Z 2622/2718 10006KT P6SM OVC020
     FM270000 02006KT P6SM OVC020
     FM270800 31008KT 6SM -SHSN BKN020 OVC040
     FM271500 30012G18KT P6SM BKN018 OVC030=



000
FTUS43 KLOT 262200 AAB
TAFMDW
TAF AMD
KMDW 262206Z 2622/2718 09005KT P6SM OVC020
     FM270000 02006KT P6SM OVC020
     FM270700 31008KT 6SM -SHSN BKN020 OVC040
     FM271500 30012G18KT P6SM BKN018 OVC030=



000
FTUS43 KLOT 261900 AAA
TAFGYY
TAF AMD
KGYY 261950Z 2620/2718 11008KT P6SM OVC018
     FM262200 08006KT P6SM OVC020
     FM270000 02006KT P6SM OVC020
     FM270800 31008KT 6SM -SHSN BKN020 OVC040
     FM271500 30012G18KT P6SM BKN018 OVC030=



000
FTUS43 KLOT 261900 AAA
TAFMDW
TAF AMD
KMDW 261950Z 2620/2718 12007KT P6SM OVC020
     FM262200 07006KT P6SM OVC020
     FM270000 02006KT P6SM OVC020
     FM270700 31008KT 6SM -SHSN BKN020 OVC040
     FM271500 30012G18KT P6SM BKN018 OVC030=



000
FTUS43 KLOT 261900 AAA
TAFORD
TAF AMD
KORD 261950Z 2620/2724 11007KT P6SM OVC020
     FM262200 07006KT P6SM OVC020
     FM270000 01006KT P6SM OVC020
     FM270700 31008KT 6SM -SHSN BKN020 OVC040
     FM271500 30012G18KT P6SM BKN018 OVC030=



000
FTUS43 KLOT 261900 AAA
TAFDPA
TAF AMD
KDPA 261950Z 2620/2718 10006KT P6SM OVC020
     FM262200 07006KT P6SM OVC020
     FM270000 02005KT P6SM OVC020
     FM270700 31008KT 6SM -SHSN BKN020 OVC040
     FM271500 30012G18KT P6SM BKN018 OVC030=



000
FTUS43 KLOT 261900 AAA
TAFGYY
TAF AMD
KGYY 261950Z 2620/2718 11008KT P6SM OVC018
     FM262200 08006KT P6SM OVC020
     FM270000 02006KT P6SM OVC020
     FM270800 31008KT 6SM -SHSN BKN020 OVC040
     FM271500 30012G18KT P6SM BKN018 OVC030=



000
FTUS43 KLOT 261900 AAA
TAFRFD
TAF AMD
KRFD 261950Z 2620/2718 12007KT P6SM OVC015
     FM262200 07006KT P6SM OVC018
     FM270200 01005KT P6SM BKN020 OVC080
     FM270500 31008KT 6SM -SHSN BKN020 OVC040
     FM271500 30012G18KT P6SM BKN018 OVC030=



000
FTUS43 KLOT 261700
TAFORD
TAF
KORD 261720Z 2618/2724 13006KT 6SM BR OVC016
     FM262100 07006KT P6SM OVC018
     FM270000 01006KT P6SM OVC020
     FM270700 31008KT 6SM -SHSN BKN020 OVC040
     FM271500 30012G18KT P6SM BKN018 OVC030=



000
FTUS43 KLOT 261700
TAFGYY
TAF
KGYY 261720Z 2618/2718 11008KT P6SM OVC015
     FM262100 08006KT P6SM OVC018
     FM270000 02006KT P6SM OVC020
     FM270800 31008KT 6SM -SHSN BKN020 OVC040
     FM271500 30012G18KT P6SM BKN018 OVC030=



000
FTUS43 KLOT 261700
TAFDPA
TAF
KDPA 261720Z 2618/2718 14006KT 6SM BR OVC016
     FM262100 07006KT P6SM OVC018
     FM270000 02005KT P6SM OVC020
     FM270700 31008KT 6SM -SHSN BKN020 OVC040
     FM271500 30012G18KT P6SM BKN018 OVC030=



000
FTUS43 KLOT 261700
TAFGYY
TAF
KGYY 261720Z 2618/2718 11008KT P6SM OVC015
     FM262100 08006KT P6SM OVC018
     FM270000 02006KT P6SM OVC020
     FM270800 31008KT 6SM -SHSN BKN020 OVC040
     FM271500 30012G18KT P6SM BKN018 OVC030=



000
FTUS43 KLOT 261700
TAFMDW
TAF
KMDW 261720Z 2618/2718 14007KT P6SM OVC016
     FM262100 07006KT P6SM OVC018
     FM270000 02006KT P6SM OVC020
     FM270700 31008KT 6SM -SHSN BKN020 OVC040
     FM271500 30012G18KT P6SM BKN018 OVC030=



000
FTUS43 KLOT 261700
TAFRFD
TAF
KRFD 261720Z 2618/2718 12007KT 6SM BR OVC015
     FM262100 07006KT P6SM BKN018 OVC120
     FM270200 01005KT P6SM BKN020 OVC080
     FM270500 31008KT 6SM -SHSN BKN020 OVC040
     FM271500 30012G18KT P6SM BKN018 OVC030=



000
FTUS43 KLOT 261500 AAB
TAFGYY
TAF AMD
KGYY 261552Z 2616/2712 11008KT P6SM OVC015
     FM262100 08006KT P6SM OVC018
     FM270000 02006KT P6SM OVC020
     FM270800 31008KT P6SM VCSH BKN020 OVC040=



000
FTUS43 KLOT 261500 AAB
TAFORD
TAF AMD
KORD 261552Z 2616/2718 13006KT 5SM BR OVC016
     FM262100 07006KT P6SM OVC018
     FM270000 02006KT P6SM OVC020
     FM270700 31008KT P6SM VCSH BKN020 OVC040
     FM271500 30012G18KT P6SM BKN018 OVC030=



000
FTUS43 KLOT 261500 AAB
TAFGYY
TAF AMD
KGYY 261552Z 2616/2712 11008KT P6SM OVC015
     FM262100 08006KT P6SM OVC018
     FM270000 02006KT P6SM OVC020
     FM270800 31008KT P6SM VCSH BKN020 OVC040=



000
FTUS43 KLOT 261500 AAB
TAFMDW
TAF AMD
KMDW 261552Z 2616/2712 14007KT 6SM BR OVC016
     FM262100 07006KT P6SM OVC018
     FM270000 02006KT P6SM OVC020
     FM270700 31008KT P6SM VCSH BKN020 OVC040=



000
FTUS43 KLOT 261500 AAB
TAFDPA
TAF AMD
KDPA 261552Z 2616/2712 12006KT 5SM BR OVC015
     FM262100 07006KT P6SM OVC018
     FM270000 02005KT P6SM OVC020
     FM270700 31008KT P6SM VCSH BKN020 OVC040=



000
FTUS43 KLOT 261500 AAB
TAFRFD
TAF AMD
KRFD 261552Z 2616/2712 11007KT 5SM BR OVC015
     FM262100 07006KT P6SM BKN018 OVC120
     FM270200 01005KT P6SM BKN020 OVC080
     FM270700 31008KT P6SM VCSH BKN020 OVC040=



000
FTUS43 KLOT 261300 AAA
TAFDPA
TAF AMD
KDPA 261400Z 2614/2712 11004KT 5SM BR OVC015
     FM261600 10005KT P6SM OVC015
     FM262100 07006KT P6SM OVC018
     FM270000 02005KT P6SM OVC020
     FM270700 31008KT P6SM VCSH BKN020 OVC040=



000
FTUS43 KLOT 261300 AAA
TAFGYY
TAF AMD
KGYY 261400Z 2614/2712 14006KT P6SM OVC016
     FM262100 08006KT P6SM OVC018
     FM270000 02006KT P6SM OVC020
     FM270800 31008KT P6SM VCSH BKN020 OVC040=



000
FTUS43 KLOT 261300 AAA
TAFORD
TAF AMD
KORD 261400Z 2614/2718 13006KT 6SM BR OVC018
     FM262100 07006KT P6SM OVC018
     FM270000 02006KT P6SM OVC020
     FM270700 31008KT P6SM VCSH BKN020 OVC040
     FM271500 30012G18KT P6SM BKN018 OVC030=



000
FTUS43 KLOT 261300 AAA
TAFGYY
TAF AMD
KGYY 261400Z 2614/2712 14006KT P6SM OVC016
     FM262100 08006KT P6SM OVC018
     FM270000 02006KT P6SM OVC020
     FM270800 31008KT P6SM VCSH BKN020 OVC040=



000
FTUS43 KLOT 261300 AAA
TAFRFD
TAF AMD
KRFD 261400Z 2614/2712 10004KT 5SM BR FEW004 BKN015
      TEMPO 2614/2615 2SM BR
     FM261600 11007KT P6SM SCT015 BKN200
     FM262100 07006KT P6SM SCT015 OVC120
     FM270200 01005KT P6SM SCT015 OVC080
     FM270700 31008KT P6SM VCSH BKN020 OVC040=



000
FTUS43 KLOT 261300 AAA
TAFMDW
TAF AMD
KMDW 261400Z 2614/2712 14006KT 6SM BR OVC016
     FM262100 07006KT P6SM OVC018
     FM270000 02006KT P6SM OVC020
     FM270700 31008KT P6SM VCSH BKN020 OVC040=



000
FTUS43 KLOT 261100
TAFORD
TAF
KORD 261140Z 2612/2718 12003KT 5SM BR BKN014
     FM261400 11006KT P6SM BKN018
     FM261900 07006KT P6SM SCT020 OVC150
     FM270200 02005KT P6SM SCT050 BKN080
     FM270700 31008KT P6SM VCSH BKN025 OVC040
     FM271500 30012G18KT P6SM SCT025 BKN040=



000
FTUS43 KLOT 261100
TAFRFD
TAF
KRFD 261140Z 2612/2712 12003KT 4SM BR SCT012 SCT200
      TEMPO 2612/2614 2SM BR BKN012
     FM261400 11007KT P6SM SCT015 BKN200
     FM262100 07006KT P6SM OVC120
     FM270200 01005KT P6SM SCT050 BKN080
     FM270700 31008KT P6SM VCSH BKN025 OVC040=



000
FTUS43 KLOT 261100
TAFDPA
TAF
KDPA 261140Z 2612/2712 12003KT 5SM BR BKN014
     FM261400 11006KT P6SM BKN018
     FM261900 07006KT P6SM SCT020 OVC150
     FM270200 02005KT P6SM SCT050 BKN080
     FM270700 31008KT P6SM VCSH BKN025 OVC040=



000
FTUS43 KLOT 261100
TAFMDW
TAF
KMDW 261140Z 2612/2712 13003KT 5SM BR BKN014
     FM261400 11006KT P6SM BKN018
     FM261900 07006KT P6SM SCT020 OVC150
     FM270200 02005KT P6SM SCT050 BKN080
     FM270700 31008KT P6SM VCSH BKN025 OVC040=



000
FTUS43 KLOT 261100
TAFGYY
TAF
KGYY 261140Z 2612/2712 13004KT 6SM BR OVC014
     FM261400 12006KT P6SM BKN018
     FM261900 08006KT P6SM SCT020 OVC150
     FM270200 02005KT P6SM SCT050 BKN080
     FM270800 31008KT P6SM VCSH BKN025 OVC040=



000
FTUS43 KLOT 260800 AAA
TAFRFD
TAF AMD
KRFD 260857Z 2609/2706 14003KT 5SM BR SCT250
     FM261300 11007KT P6SM BKN200
     FM262100 07006KT P6SM OVC120
     FM270200 01005KT P6SM BKN080=



000
FTUS43 KLOT 260800 AAA
TAFGYY
TAF AMD
KGYY 260857Z 2609/2706 18003KT P6SM OVC012
     FM261100 15003KT P6SM FEW012 SCT250
     FM261300 11006KT P6SM BKN200
     FM262100 07006KT P6SM OVC150
     FM270200 02005KT P6SM BKN080=



000
FTUS43 KLOT 260800 AAA
TAFGYY
TAF AMD
KGYY 260857Z 2609/2706 18003KT P6SM OVC012
     FM261100 15003KT P6SM FEW012 SCT250
     FM261300 11006KT P6SM BKN200
     FM262100 07006KT P6SM OVC150
     FM270200 02005KT P6SM BKN080=



000
FTUS43 KLOT 260800 AAA
TAFORD
TAF AMD
KORD 260857Z 2609/2712 11003KT 6SM BR FEW015 SCT250
     FM261300 11006KT P6SM BKN200
     FM262100 07006KT P6SM OVC150
     FM270200 02005KT P6SM BKN080
     FM270700 31008KT P6SM SCT025 BKN050=



000
FTUS43 KLOT 260800 AAA
TAFDPA
TAF AMD
KDPA 260857Z 2609/2706 14003KT 4SM BR SCT250
     FM261400 12006KT P6SM BKN200
     FM262100 07006KT P6SM OVC150
     FM270200 02005KT P6SM BKN080=



000
FTUS43 KLOT 260800 AAA
TAFMDW
TAF AMD
KMDW 260857Z 2609/2706 11003KT 6SM BR FEW014 SCT250
      TEMPO 2609/2611 BKN012
     FM261300 11006KT P6SM BKN200
     FM262100 07006KT P6SM OVC150
     FM270200 02005KT P6SM BKN080=



000
FTUS43 KLOT 260500
TAFGYY
TAF
KGYY 260540Z 2606/2706 19003KT P6SM OVC012
     FM260900 16003KT P6SM FEW012 FEW250
     FM261300 12006KT P6SM BKN200
     FM262100 07006KT P6SM OVC150
     FM270200 02005KT P6SM BKN080=



000
FTUS43 KLOT 260500
TAFMDW
TAF
KMDW 260540Z 2606/2706 19004KT P6SM OVC012
     FM260900 16003KT P6SM FEW012 FEW250
     FM261300 13006KT P6SM BKN200
     FM262100 07006KT P6SM OVC150
     FM270200 02005KT P6SM BKN080=



000
FTUS43 KLOT 260500
TAFORD
TAF
KORD 260540Z 2606/2712 19004KT P6SM FEW012 FEW250
      TEMPO 2606/2608 BKN012
     FM261300 13006KT P6SM BKN200
     FM262100 07006KT P6SM OVC150
     FM270200 02005KT P6SM BKN080
     FM270700 31008KT P6SM SCT025 BKN050=



000
FTUS43 KLOT 260500
TAFGYY
TAF
KGYY 260540Z 2606/2706 19003KT P6SM OVC012
     FM260900 16003KT P6SM FEW012 FEW250
     FM261300 12006KT P6SM BKN200
     FM262100 07006KT P6SM OVC150
     FM270200 02005KT P6SM BKN080=



000
FTUS43 KLOT 260500
TAFDPA
TAF
KDPA 260540Z 2606/2706 16003KT 6SM BR FEW012 FEW250
      TEMPO 2606/2608 5SM BR BKN012
     FM261400 12006KT P6SM BKN200
     FM262100 07006KT P6SM OVC150
     FM270200 02005KT P6SM BKN080=



000
FTUS43 KLOT 260500
TAFRFD
TAF
KRFD 260540Z 2606/2706 14003KT 6SM BR FEW250
     FM261300 11007KT P6SM BKN200
     FM262100 07006KT P6SM OVC120
     FM270200 01005KT P6SM BKN080=



000
FTUS43 KLOT 260400 AAB
TAFGYY
TAF AMD
KGYY 260437Z 2605/2624 20004KT P6SM BKN014
     FM260700 17003KT P6SM SCT017
     FM261300 15005KT P6SM BKN200
     FM262100 07005KT P6SM OVC150=



000
FTUS43 KLOT 260400 AAB
TAFGYY
TAF AMD
KGYY 260437Z 2605/2624 20004KT P6SM BKN014
     FM260700 17003KT P6SM SCT017
     FM261300 15005KT P6SM BKN200
     FM262100 07005KT P6SM OVC150=



000
FTUS43 KLOT 260400 AAB
TAFMDW
TAF AMD
KMDW 260436Z 2605/2624 18004KT P6SM SCT014 SCT250
      TEMPO 2605/2607 BKN014
     FM261300 14005KT P6SM BKN200
     FM262100 07005KT P6SM OVC150=



000
FTUS43 KLOT 260400 AAB
TAFORD
TAF AMD
KORD 260435Z 2605/2706 19004KT P6SM SCT014 SCT250
      TEMPO 2605/2607 BKN014
     FM261300 14005KT P6SM BKN200
     FM262100 07005KT P6SM OVC150
     FM270200 33005KT P6SM BKN080=



000
FTUS43 KLOT 260300 AAA
TAFGYY
TAF AMD
KGYY 260300Z 2603/2624 20004KT P6SM BKN017
     FM260500 17003KT P6SM SCT017
     FM261300 15005KT P6SM BKN200
     FM262100 07005KT P6SM OVC150=



000
FTUS43 KLOT 260300 AAA
TAFRFD
TAF AMD
KRFD 260300Z 2603/2624 16004KT P6SM FEW250
     FM260900 13005KT P6SM BKN200
     FM261700 10007KT P6SM BKN120=



000
FTUS43 KLOT 260300 AAA
TAFGYY
TAF AMD
KGYY 260300Z 2603/2624 20004KT P6SM BKN017
     FM260500 17003KT P6SM SCT017
     FM261300 15005KT P6SM BKN200
     FM262100 07005KT P6SM OVC150=



000
FTUS43 KLOT 260300 AAA
TAFDPA
TAF AMD
KDPA 260300Z 2603/2624 17003KT P6SM FEW015
     FM261300 15004KT P6SM BKN200
     FM262100 07005KT P6SM OVC150=



000
FTUS43 KLOT 260300 AAA
TAFORD
TAF AMD
KORD 260300Z 2603/2706 19004KT P6SM FEW018 SCT250
     FM261300 14005KT P6SM BKN200
     FM262100 07005KT P6SM OVC150
     FM270200 33005KT P6SM BKN080=



000
FTUS43 KLOT 260300 AAA
TAFMDW
TAF AMD
KMDW 260300Z 2603/2624 19004KT P6SM FEW015 SCT250
      TEMPO 2603/2605 BKN015
     FM261300 14005KT P6SM BKN200
     FM262100 07005KT P6SM OVC150=



000
FTUS43 KLOT 252300
TAFDPA
TAF
KDPA 252320Z 2600/2624 25007KT P6SM SCT015
     FM260200 23005KT P6SM FEW015 SCT250
     FM261300 15004KT P6SM BKN200
     FM262100 07005KT P6SM OVC150=



000
FTUS43 KLOT 252300
TAFGYY
TAF
KGYY 252320Z 2600/2624 24007KT P6SM BKN018
     FM260400 20005KT P6SM SCT018
     FM261300 15005KT P6SM BKN200
     FM262100 07005KT P6SM OVC150=



000
FTUS43 KLOT 252300
TAFGYY
TAF
KGYY 252320Z 2600/2624 24007KT P6SM BKN018
     FM260400 20005KT P6SM SCT018
     FM261300 15005KT P6SM BKN200
     FM262100 07005KT P6SM OVC150=



000
FTUS43 KLOT 252300
TAFRFD
TAF
KRFD 252320Z 2600/2624 23004KT P6SM FEW250
     FM260900 13005KT P6SM BKN200
     FM261700 10007KT P6SM BKN120=



000
FTUS43 KLOT 252300
TAFORD
TAF
KORD 252320Z 2600/2706 25007KT P6SM SCT019
     FM260200 23005KT P6SM FEW019 SCT250
     FM261300 14005KT P6SM BKN200
     FM262100 07005KT P6SM OVC150
     FM270200 33005KT P6SM BKN080=



000
FTUS43 KLOT 252300
TAFMDW
TAF
KMDW 252320Z 2600/2624 24007KT P6SM SCT018
      TEMPO 2600/2602 BKN018
     FM260200 23005KT P6SM FEW020 SCT250
     FM261300 14005KT P6SM BKN200
     FM262100 07005KT P6SM OVC150=



000
FTUS43 KLOT 252100 AAB
TAFRFD
TAF AMD
KRFD 252155Z 2522/2618 23008KT P6SM SCT018
     FM260000 21004KT P6SM SCT250
     FM261300 12006KT P6SM BKN140=



000
FTUS43 KLOT 252100 AAC
TAFMDW
TAF AMD
KMDW 252155Z 2522/2618 26010KT P6SM BKN020
     FM260200 24005KT P6SM FEW020 SCT250
     FM261300 14005KT P6SM BKN200=



000
FTUS43 KLOT 252100 AAB
TAFORD
TAF AMD
KORD 252155Z 2522/2624 26009KT P6SM BKN020
     FM260200 24005KT P6SM FEW020 SCT250
     FM261300 14005KT P6SM BKN200
     FM262100 07005KT P6SM OVC150=



000
FTUS43 KLOT 252100 AAC
TAFDPA
TAF AMD
KDPA 252155Z 2522/2618 23010KT P6SM BKN017
     FM260200 22004KT P6SM FEW017 SCT250
     FM261300 15004KT P6SM BKN200=



000
FTUS43 KLOT 252100 AAC
TAFGYY
TAF AMD
KGYY 252155Z 2522/2618 25011KT P6SM BKN020
     FM260300 23005KT P6SM FEW020 SCT250
     FM261300 15005KT P6SM BKN200=



000
FTUS43 KLOT 252100 AAC
TAFGYY
TAF AMD
KGYY 252155Z 2522/2618 25011KT P6SM BKN020
     FM260300 23005KT P6SM FEW020 SCT250
     FM261300 15005KT P6SM BKN200=



000
FTUS43 KLOT 252100 AAC
TAFMDW
TAF AMD
KMDW 252155Z 2522/2618 26010KT P6SM BKN020
     FM260200 24005KT P6SM FEW020 SCT250
     FM261300 14005KT P6SM BKN200=



000
FTUS43 KLOT 252100 AAB
TAFRFD
TAF AMD
KRFD 252155Z 2522/2618 23008KT P6SM SCT018
     FM260000 21004KT P6SM SCT250
     FM261300 12006KT P6SM BKN140=



000
FTUS43 KLOT 252100 AAB
TAFORD
TAF AMD
KORD 252155Z 2522/2624 26009KT P6SM BKN020
     FM260200 24005KT P6SM FEW020 SCT250
     FM261300 14005KT P6SM BKN200
     FM262100 07005KT P6SM OVC150=



000
FTUS43 KLOT 252100 AAC
TAFDPA
TAF AMD
KDPA 252155Z 2522/2618 23010KT P6SM BKN017
     FM260200 22004KT P6SM FEW017 SCT250
     FM261300 15004KT P6SM BKN200=



000
FTUS43 KLOT 251900 AAB
TAFMDW
TAF AMD
KMDW 251958Z 2520/2618 24011KT P6SM BKN023
      TEMPO 2520/2522 SCT023
     FM252200 25010KT P6SM SCT023
     FM260000 24005KT P6SM FEW020 SCT250
     FM261300 14005KT P6SM BKN200=



000
FTUS43 KLOT 251900 AAB
TAFGYY
TAF AMD
KGYY 251958Z 2520/2618 25011KT P6SM BKN022
     FM260100 24005KT P6SM FEW020 SCT250
     FM261300 15005KT P6SM BKN200=



000
FTUS43 KLOT 251900 AAA
TAFORD
TAF AMD
KORD 251958Z 2520/2624 25009KT P6SM SCT021 SCT250
     FM260000 25005KT P6SM FEW020 SCT250
     FM261300 14005KT P6SM BKN200
     FM262100 07005KT P6SM OVC150=



000
FTUS43 KLOT 251900 AAB
TAFDPA
TAF AMD
KDPA 251958Z 2520/2618 27008KT P6SM SCT017 SCT250
     FM260000 23004KT P6SM FEW017 SCT250
     FM261300 15004KT P6SM BKN200=



000
FTUS43 KLOT 251900 AAA
TAFRFD
TAF AMD
KRFD 251958Z 2520/2618 28008KT P6SM SCT016 SCT250
     FM260000 23004KT P6SM FEW015 SCT250
     FM261300 12006KT P6SM BKN140=



000
FTUS43 KLOT 251900 AAB
TAFGYY
TAF AMD
KGYY 251958Z 2520/2618 25011KT P6SM BKN022
     FM260100 24005KT P6SM FEW020 SCT250
     FM261300 15005KT P6SM BKN200=



000
FTUS43 KLOT 251900 AAA
TAFMDW
TAF AMD
KMDW 251912Z 2519/2618 25009KT P6SM SCT023 SCT250
      TEMPO 2519/2522 BKN023
     FM260000 24005KT P6SM SCT250
     FM261300 14005KT P6SM BKN200=



000
FTUS43 KLOT 251900 AAA
TAFDPA
TAF AMD
KDPA 251908Z 2519/2618 27008KT P6SM SCT020 SCT250
      TEMPO 2519/2522 BKN018
     FM260000 23004KT P6SM SCT250
     FM261300 15004KT P6SM BKN200=



000
FTUS43 KLOT 251900 AAA
TAFGYY
TAF AMD
KGYY 251907Z 2519/2618 26011KT P6SM BKN022
     FM260000 24005KT P6SM SCT250
     FM261300 15005KT P6SM BKN200=



000
FTUS43 KLOT 251900 AAA
TAFGYY
TAF AMD
KGYY 251907Z 2519/2618 26011KT P6SM BKN022
     FM260000 24005KT P6SM SCT250
     FM261300 15005KT P6SM BKN200=



000
FTUS43 KLOT 251700
TAFORD
TAF
KORD 251725Z 2518/2624 26009KT P6SM FEW020 SCT250
     FM260000 25005KT P6SM SCT250
     FM261300 14005KT P6SM BKN200
     FM262100 07005KT P6SM OVC150=



000
FTUS43 KLOT 251700
TAFGYY
TAF
KGYY 251725Z 2518/2618 26011KT P6SM BKN018
     FM251900 26010KT P6SM SCT020 SCT250
     FM260000 24005KT P6SM SCT250
     FM261300 15005KT P6SM BKN200=



000
FTUS43 KLOT 251700
TAFDPA
TAF
KDPA 251725Z 2518/2618 27008KT P6SM FEW020 SCT250
     FM260000 23004KT P6SM SCT250
     FM261300 15004KT P6SM BKN200=



000
FTUS43 KLOT 251700
TAFMDW
TAF
KMDW 251725Z 2518/2618 26009KT P6SM SCT020 SCT250
     FM260000 24005KT P6SM SCT250
     FM261300 14005KT P6SM BKN200=



000
FTUS43 KLOT 251700
TAFGYY
TAF
KGYY 251725Z 2518/2618 26011KT P6SM BKN018
     FM251900 26010KT P6SM SCT020 SCT250
     FM260000 24005KT P6SM SCT250
     FM261300 15005KT P6SM BKN200=



000
FTUS43 KLOT 251700
TAFRFD
TAF
KRFD 251725Z 2518/2618 28008KT P6SM FEW020 SCT250
     FM260000 23004KT P6SM SCT250
     FM261300 12006KT P6SM BKN140=



000
FTUS43 KLOT 251600 AAC
TAFGYY
TAF AMD
KGYY 251612Z 2516/2612 27012KT P6SM BKN018 OVC120
     FM251700 26011KT P6SM SCT020
     FM260000 23006KT P6SM SCT250
     FM260600 19004KT P6SM BKN250=



000
FTUS43 KLOT 251600 AAC
TAFGYY
TAF AMD
KGYY 251612Z 2516/2612 27012KT P6SM BKN018 OVC120
     FM251700 26011KT P6SM SCT020
     FM260000 23006KT P6SM SCT250
     FM260600 19004KT P6SM BKN250=



000
FTUS43 KLOT 251600 AAB
TAFGYY
TAF AMD
KGYY 251608Z 2516/2612 27012KT P6SM BKN020 OVC120
     FM251700 26011KT P6SM SCT020
     FM260000 23006KT P6SM SCT250
     FM260600 19004KT P6SM BKN250=



000
FTUS43 KLOT 251600 AAB
TAFGYY
TAF AMD
KGYY 251608Z 2516/2612 27012KT P6SM BKN020 OVC120
     FM251700 26011KT P6SM SCT020
     FM260000 23006KT P6SM SCT250
     FM260600 19004KT P6SM BKN250=



000
FTUS43 KLOT 251600 AAB
TAFORD
TAF AMD
KORD 251608Z 2516/2618 27011KT P6SM SCT020 SCT250
     FM260000 23006KT P6SM SCT250
     FM260600 18003KT P6SM BKN250
     FM261300 15006KT P6SM SCT150 BKN250=



000
FTUS43 KLOT 251600 AAB
TAFDPA
TAF AMD
KDPA 251608Z 2516/2612 27011KT P6SM SCT020
     FM260000 23006KT P6SM SCT250
     FM260600 18003KT P6SM BKN250=



000
FTUS43 KLOT 251600 AAB
TAFMDW
TAF AMD
KMDW 251608Z 2516/2612 26011KT P6SM SCT020
     FM260000 23006KT P6SM SCT250
     FM260600 18003KT P6SM BKN250=



000
FTUS43 KLOT 251600 AAB
TAFRFD
TAF AMD
KRFD 251608Z 2516/2612 27010KT P6SM SCT030 SCT250
     FM251800 26009KT P6SM SCT015
      TEMPO 2518/2520 BKN015
     FM260000 23006KT P6SM SCT250
     FM260500 18004KT P6SM BKN250
     FM261000 14006KT P6SM SCT150 BKN250=



000
FTUS43 KLOT 251400 AAA
TAFGYY
TAF AMD
KGYY 251401Z 2514/2612 27011G16KT P6SM BKN020 OVC120
     FM251700 26009KT P6SM SCT020
     FM260000 23006KT P6SM SCT040 SCT250
     FM260600 20004KT P6SM BKN250=



000
FTUS43 KLOT 251400 AAA
TAFORD
TAF AMD
KORD 251401Z 2514/2618 27013KT P6SM SCT016 OVC028
     FM251500 27011KT P6SM SCT020 SCT250
     FM260000 23006KT P6SM SCT020
     FM260600 20004KT P6SM BKN250
     FM261300 15006KT P6SM SCT150 BKN250=



000
FTUS43 KLOT 251400 AAA
TAFDPA
TAF AMD
KDPA 251401Z 2514/2612 27012KT P6SM OVC025
     FM251500 27011KT P6SM SCT020 SCT250
     FM260000 23006KT P6SM SCT040 SCT250
     FM260600 20004KT P6SM BKN250=



000
FTUS43 KLOT 251400 AAA
TAFGYY
TAF AMD
KGYY 251401Z 2514/2612 27011G16KT P6SM BKN020 OVC120
     FM251700 26009KT P6SM SCT020
     FM260000 23006KT P6SM SCT040 SCT250
     FM260600 20004KT P6SM BKN250=



000
FTUS43 KLOT 251400 AAA
TAFRFD
TAF AMD
KRFD 251401Z 2514/2612 27010KT P6SM SCT030 SCT250
     FM251800 26009KT P6SM SCT020
      TEMPO 2518/2520 BKN020
     FM260000 23006KT P6SM SCT040 SCT250
     FM260500 18004KT P6SM BKN250
     FM261000 14006KT P6SM SCT150 BKN250=



000
FTUS43 KLOT 251400 AAA
TAFMDW
TAF AMD
KMDW 251401Z 2514/2612 28011KT P6SM BKN018 OVC040
     FM251430 28011KT P6SM SCT018 OVC025
     FM251600 26009KT P6SM SCT025 SCT120
     FM260000 23006KT P6SM SCT040 SCT250
     FM260600 20004KT P6SM BKN250=



000
FTUS43 KLOT 251100
TAFORD
TAF
KORD 251139Z 2512/2618 27011KT P6SM VCSH BKN018 OVC040
     FM251400 27010KT P6SM BKN025 BKN040
     FM251800 26009KT P6SM SCT025 BKN040
     FM260000 24006KT P6SM SCT040 SCT250
     FM260600 20004KT P6SM BKN250
     FM261300 15006KT P6SM SCT150 BKN250=



000
FTUS43 KLOT 251100
TAFDPA
TAF
KDPA 251139Z 2512/2612 27011KT P6SM VCSH BKN018 OVC040
     FM251400 27010KT P6SM BKN025 BKN040
     FM251800 26009KT P6SM SCT025 BKN040
     FM260000 24006KT P6SM SCT040 SCT250
     FM260600 20004KT P6SM BKN250=



000
FTUS43 KLOT 251100
TAFRFD
TAF
KRFD 251139Z 2512/2612 28010KT P6SM VCSH BKN025 OVC040
     FM251400 27010KT P6SM BKN025 BKN040
     FM251800 26009KT P6SM SCT025 BKN040
     FM260000 23006KT P6SM SCT040 SCT250
     FM260500 18004KT P6SM BKN250
     FM261000 14006KT P6SM SCT150 BKN250=



000
FTUS43 KLOT 251100
TAFGYY
TAF
KGYY 251139Z 2512/2612 26011G16KT P6SM VCSH BKN018 OVC040
     FM251400 26010KT P6SM BKN025 BKN040
     FM251800 26009KT P6SM SCT025 BKN040
     FM260000 24006KT P6SM SCT040 SCT250
     FM260600 20004KT P6SM BKN250=



000
FTUS43 KLOT 251100
TAFMDW
TAF
KMDW 251139Z 2512/2612 27011KT P6SM VCSH BKN018 OVC040
     FM251400 27010KT P6SM BKN025 BKN040
     FM251800 26009KT P6SM SCT025 BKN040
     FM260000 24006KT P6SM SCT040 SCT250
     FM260600 20004KT P6SM BKN250=



000
FTUS43 KLOT 251100
TAFGYY
TAF
KGYY 251139Z 2512/2612 26011G16KT P6SM VCSH BKN018 OVC040
     FM251400 26010KT P6SM BKN025 BKN040
     FM251800 26009KT P6SM SCT025 BKN040
     FM260000 24006KT P6SM SCT040 SCT250
     FM260600 20004KT P6SM BKN250=



000
FTUS43 KLOT 250900 AAA
TAFGYY
TAF AMD
KGYY 250917Z 2509/2606 26012G18KT P6SM -SHSN BKN020 OVC035
      TEMPO 2510/2512 1 1/2SM -SHSN BKN018
     FM251400 26011G16KT P6SM BKN025
     FM251800 26010G15KT P6SM BKN035
     FM260000 24006KT P6SM SCT035=



000
FTUS43 KLOT 250900 AAA
TAFRFD
TAF AMD
KRFD 250917Z 2509/2606 27011G16KT P6SM VCSH BKN020
     FM251400 27010KT P6SM BKN025
     FM251800 27009KT P6SM BKN035
     FM260000 24006KT P6SM SCT035=



000
FTUS43 KLOT 250900 AAA
TAFORD
TAF AMD
KORD 250917Z 2509/2612 27011G16KT P6SM -SHSN BKN018 OVC035
      TEMPO 2509/2511 1 1/2SM -SHSN BKN015
     FM251400 27010KT P6SM BKN025
     FM251800 27010KT P6SM BKN035
     FM260000 24006KT P6SM SCT035
     FM260600 19004KT P6SM SCT250=



000
FTUS43 KLOT 250900 AAA
TAFMDW
TAF AMD
KMDW 250917Z 2509/2606 26012G18KT P6SM -SHSN BKN018 OVC035
      TEMPO 2509/2511 1 1/2SM -SHSN BKN015
     FM251400 27011KT P6SM BKN025
     FM251800 27010KT P6SM BKN035
     FM260000 24006KT P6SM SCT035=



000
FTUS43 KLOT 250900 AAA
TAFGYY
TAF AMD
KGYY 250917Z 2509/2606 26012G18KT P6SM -SHSN BKN020 OVC035
      TEMPO 2510/2512 1 1/2SM -SHSN BKN018
     FM251400 26011G16KT P6SM BKN025
     FM251800 26010G15KT P6SM BKN035
     FM260000 24006KT P6SM SCT035=



000
FTUS43 KLOT 250900 AAA
TAFDPA
TAF AMD
KDPA 250917Z 2509/2606 27011G16KT P6SM -SHSN BKN018 OVC035
      TEMPO 2509/2511 1 1/2SM -SHSN BKN015
     FM251400 27010KT P6SM BKN025
     FM251800 27010KT P6SM BKN035
     FM260000 24006KT P6SM SCT035=



000
FTUS43 KLOT 250500
TAFDPA
TAF
KDPA 250539Z 2506/2606 26013G21KT P6SM -SHSN OVC020
      TEMPO 2507/2510 2SM -SHSN BKN015
     FM251400 27011KT P6SM BKN025
     FM251800 27010KT P6SM BKN035
     FM260000 24006KT P6SM SCT035=



000
FTUS43 KLOT 250500
TAFGYY
TAF
KGYY 250539Z 2506/2606 26014G24KT P6SM -SHSN OVC020
      TEMPO 2508/2511 2SM -SHSN BKN015
     FM251400 26011G16KT P6SM BKN025
     FM251800 26010G15KT P6SM BKN035
     FM260000 24006KT P6SM SCT035=



000
FTUS43 KLOT 250500
TAFGYY
TAF
KGYY 250539Z 2506/2606 26014G24KT P6SM -SHSN OVC020
      TEMPO 2508/2511 2SM -SHSN BKN015
     FM251400 26011G16KT P6SM BKN025
     FM251800 26010G15KT P6SM BKN035
     FM260000 24006KT P6SM SCT035=



000
FTUS43 KLOT 250500
TAFRFD
TAF
KRFD 250539Z 2506/2606 26013G20KT P6SM -SHSN OVC020
      TEMPO 2506/2509 2SM -SHSN BKN015
     FM251400 27010KT P6SM BKN025
     FM251800 27009KT P6SM BKN035
     FM260000 24006KT P6SM SCT035=



000
FTUS43 KLOT 250500
TAFORD
TAF
KORD 250539Z 2506/2612 26013G22KT P6SM -SHSN OVC020
      TEMPO 2507/2510 2SM -SHSN BKN015
     FM251400 27011KT P6SM BKN025
     FM251800 27010KT P6SM BKN035
     FM260000 24006KT P6SM SCT035
     FM260600 19004KT P6SM SCT250=



000
FTUS43 KLOT 250500
TAFMDW
TAF
KMDW 250539Z 2506/2606 26014G22KT P6SM -SHSN OVC020
      TEMPO 2507/2510 2SM -SHSN BKN015
     FM251400 27011KT P6SM BKN025
     FM251800 27010KT P6SM BKN035
     FM260000 24006KT P6SM SCT035=



000
FTUS43 KLOT 250200 AAA
TAFDPA
TAF AMD
KDPA 250221Z 2502/2524 26017G30KT P6SM VCSH OVC015
      TEMPO 2502/2504 4SM -SHSN
     FM250400 26015G27KT P6SM VCSH OVC018
     FM250600 26014G24KT P6SM VCSH BKN025 OVC035
      TEMPO 2506/2509 2SM -SHSN BKN015 OVC025
     FM251400 27010KT P6SM SCT020 BKN035=



000
FTUS43 KLOT 250200 AAA
TAFORD
TAF AMD
KORD 250221Z 2502/2606 26017G30KT P6SM VCSH OVC017
      TEMPO 2502/2504 4SM -SHSN
     FM250400 26015G28KT P6SM VCSH OVC020
     FM250600 26014G24KT P6SM VCSH BKN025 OVC035
      TEMPO 2506/2509 2SM -SHSN BKN015 OVC025
     FM251400 27010KT P6SM SCT020 BKN035
     FM260000 24006KT P6SM SCT035=



000
FTUS43 KLOT 250200 AAA
TAFMDW
TAF AMD
KMDW 250221Z 2502/2524 25018G31KT P6SM VCSH OVC017
      TEMPO 2502/2504 4SM -SHSN
     FM250400 26015G28KT P6SM VCSH OVC020
     FM250600 26014G24KT P6SM VCSH BKN025 OVC035
      TEMPO 2506/2509 2SM -SHSN BKN015 OVC025
     FM251400 27010KT P6SM SCT020 BKN035=



000
FTUS43 KLOT 250200 AAA
TAFRFD
TAF AMD
KRFD 250221Z 2502/2524 26017G25KT 6SM -SHSN OVC018
      TEMPO 2502/2503 2SM -SN
     FM250300 26014G24KT P6SM VCSH OVC020
     FM250500 27013KT P6SM VCSH BKN020 OVC035
      TEMPO 2505/2508 2SM -SHSN BKN015 OVC030
     FM251200 27010KT P6SM BKN025=



000
FTUS43 KLOT 250200 AAA
TAFGYY
TAF AMD
KGYY 250221Z 2502/2524 25021G35KT P6SM VCSH OVC017
      TEMPO 2502/2504 2SM -SHSN
     FM250400 26015G28KT P6SM VCSH OVC020
     FM250600 27013G24KT P6SM VCSH BKN025 OVC035
      TEMPO 2507/2510 2SM -SHSN
     FM251400 27010KT P6SM SCT020 BKN035=



000
FTUS43 KLOT 250200 AAA
TAFGYY
TAF AMD
KGYY 250221Z 2502/2524 25021G35KT P6SM VCSH OVC017
      TEMPO 2502/2504 2SM -SHSN
     FM250400 26015G28KT P6SM VCSH OVC020
     FM250600 27013G24KT P6SM VCSH BKN025 OVC035
      TEMPO 2507/2510 2SM -SHSN
     FM251400 27010KT P6SM SCT020 BKN035=



000
FTUS43 KLOT 242300
TAFGYY
TAF
KGYY 242340Z 2500/2524 25021G35KT P6SM VCSH OVC015
      TEMPO 2500/2504 2SM -SHSN
     FM250400 26015G28KT P6SM VCSH SCT015 OVC020
     FM250600 27013G24KT P6SM VCSH BKN025 OVC035
      TEMPO 2507/2510 2SM -SHSN
     FM251400 27010KT P6SM SCT020 BKN035=



000
FTUS43 KLOT 242300
TAFDPA
TAF
KDPA 242340Z 2500/2524 26021G34KT P6SM VCSH OVC015
      TEMPO 2500/2504 2SM -SHSN
     FM250400 26015G28KT P6SM VCSH SCT015 OVC022
     FM250600 26014G24KT P6SM VCSH BKN025 OVC035
      TEMPO 2506/2509 2SM -SHSN BKN015 OVC025
     FM251400 27010KT P6SM SCT020 BKN035=



000
FTUS43 KLOT 242300
TAFMDW
TAF
KMDW 242340Z 2500/2524 25021G34KT P6SM VCSH OVC015
      TEMPO 2500/2504 2SM -SHSN
     FM250400 26015G28KT P6SM VCSH SCT015 OVC022
     FM250600 26014G24KT P6SM VCSH BKN025 OVC035
      TEMPO 2506/2509 2SM -SHSN BKN015 OVC025
     FM251400 27010KT P6SM SCT020 BKN035=



000
FTUS43 KLOT 242300
TAFRFD
TAF
KRFD 242340Z 2500/2524 26017G27KT 6SM -SHSN OVC012
      TEMPO 2500/2503 2SM -SN
     FM250300 26014G24KT P6SM VCSH OVC015
     FM250500 27013KT P6SM VCSH BKN020 OVC035
      TEMPO 2505/2508 2SM -SHSN BKN015 OVC030
     FM251200 27010KT P6SM BKN025=



000
FTUS43 KLOT 242300
TAFGYY
TAF
KGYY 242340Z 2500/2524 25021G35KT P6SM VCSH OVC015
      TEMPO 2500/2504 2SM -SHSN
     FM250400 26015G28KT P6SM VCSH SCT015 OVC020
     FM250600 27013G24KT P6SM VCSH BKN025 OVC035
      TEMPO 2507/2510 2SM -SHSN
     FM251400 27010KT P6SM SCT020 BKN035=



000
FTUS43 KLOT 242300
TAFORD
TAF
KORD 242340Z 2500/2606 26021G34KT P6SM VCSH OVC015
      TEMPO 2500/2504 2SM -SHSN
     FM250400 26015G28KT P6SM VCSH SCT015 OVC022
     FM250600 26014G24KT P6SM VCSH BKN025 OVC035
      TEMPO 2506/2509 2SM -SHSN BKN015 OVC025
     FM251400 27010KT P6SM SCT020 BKN035
     FM260000 24006KT P6SM SCT035=



000
FTUS43 KLOT 242200 AAB
TAFGYY
TAF AMD
KGYY 242202Z 2422/2518 26021G37KT 5SM -SHSN BKN015 OVC020
     FM250100 26018G28KT P6SM -SHSN SCT015 OVC022
     FM250600 27013KT P6SM BKN025 OVC035
     FM251400 27010KT P6SM SCT020 BKN035=



000
FTUS43 KLOT 242200 AAB
TAFGYY
TAF AMD
KGYY 242202Z 2422/2518 26021G37KT 5SM -SHSN BKN015 OVC020
     FM250100 26018G28KT P6SM -SHSN SCT015 OVC022
     FM250600 27013KT P6SM BKN025 OVC035
     FM251400 27010KT P6SM SCT020 BKN035=



000
FTUS43 KLOT 242200 AAC
TAFDPA
TAF AMD
KDPA 242202Z 2422/2518 25020G31KT 3SM -SHSN BKN012 OVC020
      TEMPO 2422/2423 1SM -SN
     FM242300 26021G32KT 5SM -SN BKN014 OVC020
     FM250100 26018G28KT P6SM -SHSN SCT015 OVC022
     FM250600 27013KT P6SM BKN025 OVC035
     FM251400 27010KT P6SM SCT020 BKN035=



000
FTUS43 KLOT 242200 AAC
TAFMDW
TAF AMD
KMDW 242202Z 2422/2518 25021G35KT 6SM -SHSN OVC017
      TEMPO 2422/2423 2SM -SN BKN012 OVC018
     FM250100 26018G28KT P6SM -SHSN SCT015 OVC022
     FM250600 27013KT P6SM BKN025 OVC035
     FM251400 27010KT P6SM SCT020 BKN035=



000
FTUS43 KLOT 242200 AAC
TAFORD
TAF AMD
KORD 242202Z 2422/2524 25021G34KT 4SM -SHSN OVC017
      TEMPO 2422/2423 2SM -SN BKN012 OVC020
     FM242300 26021G34KT 5SM -SN BKN014 OVC020
     FM250100 26018G28KT P6SM -SHSN SCT015 OVC022
     FM250600 27013KT P6SM BKN025 OVC035
     FM251400 27010KT P6SM SCT020 BKN035=



000
FTUS43 KLOT 242200 AAB
TAFRFD
TAF AMD
KRFD 242202Z 2422/2518 26017G27KT 6SM -SHSN BKN013 OVC020
      TEMPO 2422/2501 2SM -SN
     FM250100 26018G28KT P6SM -SHSN SCT015 OVC022
     FM250600 27013KT P6SM BKN025 OVC035
     FM251400 27010KT P6SM SCT020 BKN035=



000
FTUS43 KLOT 242000 AAB
TAFDPA
TAF AMD
KDPA 242059Z 2421/2518 25020G36KT 3SM -SN BKN011 OVC015
      TEMPO 2421/2423 1SM -SN
     FM242300 26021G32KT 5SM -SN BKN014 OVC020
     FM250100 26018G28KT P6SM -SHSN SCT015 OVC022
     FM250600 27013KT P6SM BKN025 OVC035
     FM251400 27010KT P6SM SCT020 BKN035=



000
FTUS43 KLOT 242000 AAB
TAFMDW
TAF AMD
KMDW 242056Z 2421/2518 25021G36KT 5SM -SN BKN014 OVC020
      TEMPO 2421/2423 2SM -SN BKN012 OVC018
     FM250100 26018G28KT P6SM -SHSN SCT015 OVC022
     FM250600 27013KT P6SM BKN025 OVC035
     FM251400 27010KT P6SM SCT020 BKN035=



000
FTUS43 KLOT 242000 AAB
TAFORD
TAF AMD
KORD 242052Z 2421/2524 25024G36KT 4SM -SN BKN017 OVC020
      TEMPO 2421/2423 1SM -SN BKN012 OVC020
     FM242300 26021G34KT 5SM -SN BKN014 OVC020
     FM250100 26018G28KT P6SM -SHSN SCT015 OVC022
     FM250600 27013KT P6SM BKN025 OVC035
     FM251400 27010KT P6SM SCT020 BKN035=



000
FTUS43 KLOT 241900 AAA
TAFGYY
TAF AMD
KGYY 241953Z 2420/2518 26020G34KT 3SM -SN BKN011 OVC014
     FM242100 26021G32KT 5SM -SN BKN014 OVC020
     FM250100 26018G28KT P6SM -SHSN SCT015 OVC022
     FM250600 27013KT P6SM BKN025 OVC035
     FM251400 27010KT P6SM SCT020 BKN035=



000
FTUS43 KLOT 241900 AAA
TAFGYY
TAF AMD
KGYY 241953Z 2420/2518 26020G34KT 3SM -SN BKN011 OVC014
     FM242100 26021G32KT 5SM -SN BKN014 OVC020
     FM250100 26018G28KT P6SM -SHSN SCT015 OVC022
     FM250600 27013KT P6SM BKN025 OVC035
     FM251400 27010KT P6SM SCT020 BKN035=



000
FTUS43 KLOT 241900 AAA
TAFDPA
TAF AMD
KDPA 241953Z 2420/2518 26020G35KT 3SM -SN BKN011 OVC015
     FM242200 26021G32KT 5SM -SN BKN014 OVC020
     FM250100 26018G28KT P6SM -SHSN SCT015 OVC022
     FM250600 27013KT P6SM BKN025 OVC035
     FM251400 27010KT P6SM SCT020 BKN035=



000
FTUS43 KLOT 241900 AAA
TAFMDW
TAF AMD
KMDW 241953Z 2420/2518 26021G34KT 5SM -SN BKN014 OVC020
     FM250100 26018G28KT P6SM -SHSN SCT015 OVC022
     FM250600 27013KT P6SM BKN025 OVC035
     FM251400 27010KT P6SM SCT020 BKN035=



000
FTUS43 KLOT 241900 AAA
TAFRFD
TAF AMD
KRFD 241953Z 2420/2518 26020G32KT 3SM -SN BLSN BKN011 OVC015
      TEMPO 2420/2421 1SM -SN BLSN OVC009
     FM242200 26021G32KT 5SM -SN BKN014 OVC020
     FM250100 26018G28KT P6SM -SHSN SCT015 OVC022
     FM250600 27013KT P6SM BKN025 OVC035
     FM251400 27010KT P6SM SCT020 BKN035=



000
FTUS43 KLOT 241900 AAA
TAFORD
TAF AMD
KORD 241953Z 2420/2524 26024G36KT 4SM -SN BKN014 OVC020
     FM242100 26021G34KT 5SM -SN BKN014 OVC020
     FM250100 26018G28KT P6SM -SHSN SCT015 OVC022
     FM250600 27013KT P6SM BKN025 OVC035
     FM251400 27010KT P6SM SCT020 BKN035=



000
FTUS43 KLOT 241700
TAFORD
TAF
KORD 241740Z 2418/2524 25023G33KT 1/2SM SN OVC008
     FM241845 26020G32KT 1SM -SN BKN010 OVC014
     FM242000 26020G32KT 3SM -SN BKN011 OVC015
     FM242200 26021G32KT 5SM -SN BKN014 OVC020
     FM250100 26018G28KT P6SM -SHSN SCT015 OVC022
     FM250600 27013KT P6SM BKN025 OVC035
     FM251400 27010KT P6SM SCT020 BKN035=



000
FTUS43 KLOT 241700
TAFRFD
TAF
KRFD 241740Z 2418/2518 25023G33KT 1/2SM SN BLSN OVC007
     FM241900 26020G32KT 2SM -SN BLSN BKN009 OVC012
     FM242000 26020G32KT 3SM -SN BKN011 OVC015
     FM242200 26021G32KT 5SM -SN BKN014 OVC020
     FM250100 26018G28KT P6SM -SHSN SCT015 OVC022
     FM250600 27013KT P6SM BKN025 OVC035
     FM251400 27010KT P6SM SCT020 BKN035=



000
FTUS43 KLOT 241700
TAFGYY
TAF
KGYY 241740Z 2418/2518 25023G33KT 1SM -SN OVC008
     FM241900 26020G32KT 3SM -SN BKN011 OVC015
     FM242200 26021G32KT 5SM -SN BKN014 OVC020
     FM250100 26018G28KT P6SM -SHSN SCT015 OVC022
     FM250600 27013KT P6SM BKN025 OVC035
     FM251400 27010KT P6SM SCT020 BKN035=



000
FTUS43 KLOT 241700
TAFDPA
TAF
KDPA 241740Z 2418/2518 25023G30KT 1/2SM SN OVC008
     FM241830 26020G32KT 1SM -SN BKN008 OVC011
     FM242000 26020G32KT 3SM -SN BKN011 OVC015
     FM242200 26021G32KT 5SM -SN BKN014 OVC020
     FM250100 26018G28KT P6SM -SHSN SCT015 OVC022
     FM250600 27013KT P6SM BKN025 OVC035
     FM251400 27010KT P6SM SCT020 BKN035=



000
FTUS43 KLOT 241700
TAFMDW
TAF
KMDW 241740Z 2418/2518 25023G30KT 1/2SM SN OVC008
     FM241830 26020G32KT 1SM -SN BKN008 OVC011
     FM241900 26020G32KT 3SM -SN BKN011 OVC015
     FM242200 26021G32KT 5SM -SN BKN014 OVC020
     FM250100 26018G28KT P6SM -SHSN SCT015 OVC022
     FM250600 27013KT P6SM BKN025 OVC035
     FM251400 27010KT P6SM SCT020 BKN035=



000
FTUS43 KLOT 241600 AAC
TAFMDW
TAF AMD
KMDW 241657Z 2417/2512 25023G34KT 3SM -SN BKN009 OVC013
      TEMPO 2417/2418 1/2SM SN OVC008
     FM242200 24021G32KT 5SM -SN BKN012 OVC020
     FM250000 25018G28KT P6SM -SHSN SCT012 OVC022
     FM250600 26013KT P6SM BKN025 OVC035=



000
FTUS43 KLOT 241600 AAC
TAFORD
TAF AMD
KORD 241657Z 2417/2518 25023G33KT 3SM -SN BKN009 OVC013
      TEMPO 2417/2418 1/2SM SN OVC009
     FM242200 26021G32KT 5SM -SN BKN010 OVC020
     FM250100 26018G28KT P6SM -SHSN SCT015 OVC022
     FM250600 27013KT P6SM BKN025 OVC035=



000
FTUS43 KLOT 241600 AAC
TAFGYY
TAF AMD
KGYY 241657Z 2417/2512 24024G35KT 3SM -SN BKN009 OVC015
      TEMPO 2417/2419 1/2SM SN OVC009
     FM242200 24024G34KT 5SM -SN BKN012 OVC020
     FM250000 25020G30KT P6SM -SHSN SCT015 OVC025
     FM250600 26013KT P6SM BKN025 OVC035=



000
FTUS43 KLOT 241600 AAC
TAFGYY
TAF AMD
KGYY 241657Z 2417/2512 24024G35KT 3SM -SN BKN009 OVC015
      TEMPO 2417/2419 1/2SM SN OVC009
     FM242200 24024G34KT 5SM -SN BKN012 OVC020
     FM250000 25020G30KT P6SM -SHSN SCT015 OVC025
     FM250600 26013KT P6SM BKN025 OVC035=



000
FTUS43 KLOT 241600 AAC
TAFRFD
TAF AMD
KRFD 241657Z 2417/2512 26021G32KT 1SM -SN BKN007 OVC015
      TEMPO 2417/2418 1/2SM SN OVC006
     FM250100 27017G24KT 5SM -SN SCT007 OVC015
     FM250600 28014KT P6SM SCT010 OVC020=



000
FTUS43 KLOT 241600 AAC
TAFDPA
TAF AMD
KDPA 241657Z 2417/2512 25024G33KT 2SM -SN SCT007 OVC015
      TEMPO 2417/2419 1/2SM SN OVC009
     FM242100 25023G31KT 5SM -SN SCT007 OVC015
     FM250100 25017G27KT P6SM -SHSN SCT010 OVC020
     FM250600 26013KT P6SM BKN025 OVC035=



000
FTUS43 KLOT 241500 AAB
TAFORD
TAF AMD
KORD 241600Z 2416/2518 26024G30KT 4SM -RASN OVC010
     FM241700 25023G33KT 3SM -SN BKN009 OVC013
     FM242200 26021G32KT 5SM -SN BKN010 OVC020
     FM250100 26018G28KT P6SM -SHSN SCT015 OVC022
     FM250600 27013KT P6SM BKN025 OVC035=



000
FTUS43 KLOT 241500 AAB
TAFMDW
TAF AMD
KMDW 241600Z 2416/2512 26020G30KT 4SM -RASN OVC009
     FM241700 25023G34KT 3SM -SN BKN009 OVC013
     FM242200 24021G32KT 5SM -SN BKN012 OVC020
     FM250000 25018G28KT P6SM -SHSN SCT012 OVC022
     FM250600 26013KT P6SM BKN025 OVC035=



000
FTUS43 KLOT 241500 AAB
TAFGYY
TAF AMD
KGYY 241600Z 2416/2512 25024G35KT 4SM -RASN OVC010
     FM241800 24024G35KT 3SM -SN BKN009 OVC015
     FM242200 24024G34KT 5SM -SN BKN012 OVC020
     FM250000 25020G30KT P6SM -SHSN SCT015 OVC025
     FM250600 26013KT P6SM BKN025 OVC035=



000
FTUS43 KLOT 241500 AAB
TAFDPA
TAF AMD
KDPA 241600Z 2416/2512 27020G30KT 5SM -SN OVC010
     FM241645 25024G33KT 2SM -SN SCT007 OVC015
     FM242100 25023G31KT 5SM -SN SCT007 OVC015
     FM250100 25017G27KT P6SM -SHSN SCT010 OVC020
     FM250600 26013KT P6SM BKN025 OVC035=



000
FTUS43 KLOT 241500 AAB
TAFRFD
TAF AMD
KRFD 241600Z 2416/2512 26021G32KT 1SM -SN BKN007 OVC015
      TEMPO 2416/2418 1/2SM SN
     FM250100 27017G24KT 5SM -SN SCT007 OVC015
     FM250600 28014KT P6SM SCT010 OVC020=



000
FTUS43 KLOT 241500 AAB
TAFGYY
TAF AMD
KGYY 241600Z 2416/2512 25024G35KT 4SM -RASN OVC010
     FM241800 24024G35KT 3SM -SN BKN009 OVC015
     FM242200 24024G34KT 5SM -SN BKN012 OVC020
     FM250000 25020G30KT P6SM -SHSN SCT015 OVC025
     FM250600 26013KT P6SM BKN025 OVC035=



000
FTUS43 KLOT 241400 AAA
TAFMDW
TAF AMD
KMDW 241400Z 2414/2512 26013G22KT 3SM -RA BR OVC006
     FM241630 27020G30KT 4SM -RASN OVC007
     FM241800 25023G34KT 3SM -SN BKN009 OVC013
     FM242200 24021G32KT 5SM -SN BKN012 OVC020
     FM250000 25018G28KT P6SM -SHSN SCT012 OVC022
     FM250600 26013KT P6SM BKN025 OVC035=



000
FTUS43 KLOT 241400 AAA
TAFDPA
TAF AMD
KDPA 241400Z 2414/2512 27015G22KT 4SM -RA BR OVC006
     FM241600 27020G30KT 3SM -RASN OVC007
     FM241800 25024G33KT 2SM -SN SCT007 OVC015
     FM242100 25023G31KT 5SM -SN SCT007 OVC015
     FM250100 25017G27KT P6SM -SHSN SCT010 OVC020
     FM250600 26013KT P6SM BKN025 OVC035=



000
FTUS43 KLOT 241400 AAA
TAFORD
TAF AMD
KORD 241400Z 2414/2518 27014G20KT 5SM -RA BR OVC005
      TEMPO 2414/2415 2SM -RA BR OVC004
     FM241630 26018G28KT 4SM -RASN OVC007
     FM241800 25023G33KT 3SM -SN BKN009 OVC013
     FM242200 26021G32KT 5SM -SN BKN010 OVC020
     FM250100 26018G28KT P6SM -SHSN SCT015 OVC022
     FM250600 27013KT P6SM BKN025 OVC035=



000
FTUS43 KLOT 241400 AAA
TAFGYY
TAF AMD
KGYY 241400Z 2414/2512 25012G22KT 2SM -RA BR OVC005
     FM241700 24024G35KT 4SM -RASN OVC009
     FM241900 24024G35KT 3SM -SN BKN009 OVC015
     FM242200 24024G34KT 5SM -SN BKN012 OVC020
     FM250000 25020G30KT P6SM -SHSN SCT015 OVC025
     FM250600 26013KT P6SM BKN025 OVC035=



000
FTUS43 KLOT 241400 AAA
TAFGYY
TAF AMD
KGYY 241400Z 2414/2512 25012G22KT 2SM -RA BR OVC005
     FM241700 24024G35KT 4SM -RASN OVC009
     FM241900 24024G35KT 3SM -SN BKN009 OVC015
     FM242200 24024G34KT 5SM -SN BKN012 OVC020
     FM250000 25020G30KT P6SM -SHSN SCT015 OVC025
     FM250600 26013KT P6SM BKN025 OVC035=



000
FTUS43 KLOT 241400 AAA
TAFRFD
TAF AMD
KRFD 241400Z 2414/2512 27015G22KT 3SM -RA BR OVC007
     FM241500 28020G30KT 2SM -RASN OVC007
     FM241600 26021G32KT 1SM -SN BKN007 OVC015
     FM250100 27017G24KT 5SM -SN SCT007 OVC015
     FM250600 28014KT P6SM SCT010 OVC020=



000
FTUS43 KLOT 241100
TAFGYY
TAF
KGYY 241137Z 2412/2512 24011KT 6SM -RA BR OVC006
     FM241430 27015G22KT 5SM -RA BR OVC007
     FM241700 24024G35KT 4SM -RASN OVC009
     FM241900 24024G35KT 3SM -SN BKN009 OVC015
     FM242200 24024G34KT 5SM -SN BKN012 OVC020
     FM250000 25020G30KT P6SM -SHSN SCT015 OVC025
     FM250600 26013KT P6SM BKN025 OVC035=



000
FTUS43 KLOT 241100
TAFDPA
TAF
KDPA 241137Z 2412/2512 24010KT 4SM -RA BR OVC004
     FM241300 27015G22KT 4SM -RA BR OVC006
     FM241600 27020G30KT 3SM -RASN OVC007
     FM241800 25024G33KT 2SM -SN SCT007 OVC015
     FM242100 25023G31KT 5SM -SN SCT007 OVC015
     FM250100 25017G27KT P6SM -SHSN SCT010 OVC020
     FM250600 26013KT P6SM BKN025 OVC035=



000
FTUS43 KLOT 241100
TAFRFD
TAF
KRFD 241137Z 2412/2512 28009KT 3SM -RA BR OVC004
     FM241300 27015G22KT 3SM -RA BR OVC007
     FM241500 28020G30KT 2SM -RASN OVC007
     FM241600 26021G32KT 1SM -SN BKN007 OVC015
     FM250100 27017G24KT 5SM -SN SCT007 OVC015
     FM250600 28014KT P6SM SCT010 OVC020=



000
FTUS43 KLOT 241100
TAFGYY
TAF
KGYY 241137Z 2412/2512 24011KT 6SM -RA BR OVC006
     FM241430 27015G22KT 5SM -RA BR OVC007
     FM241700 24024G35KT 4SM -RASN OVC009
     FM241900 24024G35KT 3SM -SN BKN009 OVC015
     FM242200 24024G34KT 5SM -SN BKN012 OVC020
     FM250000 25020G30KT P6SM -SHSN SCT015 OVC025
     FM250600 26013KT P6SM BKN025 OVC035=



000
FTUS43 KLOT 241100
TAFMDW
TAF
KMDW 241137Z 2412/2512 24010KT 5SM -RA BR OVC005
     FM241330 27013G22KT 4SM -RA BR OVC006
     FM241630 27020G30KT 4SM -RASN OVC007
     FM241800 25023G34KT 3SM -SN BKN009 OVC013
     FM242200 24021G32KT 5SM -SN BKN012 OVC020
     FM250000 25018G28KT P6SM -SHSN SCT012 OVC022
     FM250600 26013KT P6SM BKN025 OVC035=



000
FTUS43 KLOT 241100
TAFORD
TAF
KORD 241137Z 2412/2518 26008KT 5SM -RA BR OVC005
     FM241300 27014G20KT 5SM -RA BR OVC006
      TEMPO 2413/2415 3SM -RA BR OVC004
     FM241630 26018G28KT 4SM -RASN OVC007
     FM241800 25023G33KT 3SM -SN BKN009 OVC013
     FM242200 26021G32KT 5SM -SN BKN010 OVC020
     FM250100 26018G28KT P6SM -SHSN SCT015 OVC022
     FM250600 27013KT P6SM BKN025 OVC035=



000
FTUS43 KLOT 240900 AAB
TAFDPA
TAF AMD
KDPA 240942Z 2410/2506 24010KT 4SM -RA BR OVC004
     FM241300 27015G22KT 3SM -RA BR OVC006
     FM241600 27020G30KT 4SM -RASN OVC007
     FM241800 25024G33KT 3SM -SN BKN007 OVC015
     FM242200 25023G31KT 5SM -SN SCT007 OVC012
     FM250200 25017G27KT P6SM -SN SCT010 OVC020=



000
FTUS43 KLOT 240900 AAB
TAFDPA
TAF AMD
KDPA 240942Z 2410/2506 24010KT 4SM -RA BR OVC004
     FM241300 27015G22KT 3SM -RA BR OVC006
     FM241600 27020G30KT 4SM -RASN OVC007
     FM241800 25024G33KT 3SM -SN BKN007 OVC015
     FM242200 25023G31KT 5SM -SN SCT007 OVC012
     FM250200 25017G27KT P6SM -SN SCT010 OVC020=



000
FTUS43 KLOT 240900 AAB
TAFORD
TAF AMD
KORD 240939Z 2410/2512 24008KT 6SM -RA BR OVC006
      TEMPO 2410/2411 3SM RA BR BKN006 OVC010
     FM241400 27015G22KT 5SM -RA BR OVC006
     FM241700 27020G30KT 4SM -RASN OVC007
     FM241900 25024G33KT 3SM -SN OVC009
     FM242200 25023G32KT 5SM -SN SCT010 OVC020
     FM250100 25017G27KT P6SM -SN OVC025
     FM250600 26012G18KT P6SM OVC025=



000
FTUS43 KLOT 240900 AAB
TAFMDW
TAF AMD
KMDW 240934Z 2410/2506 24010KT P6SM -RA OVC006
      TEMPO 2410/2411 4SM RA BR OVC005
     FM241300 27015G22KT 4SM -RA BR BKN007 OVC015
     FM241700 27020G30KT 4SM -RASN SCT007 OVC012
     FM241900 25024G33KT 2SM -SN SCT007 OVC015
     FM242200 24020G32KT 6SM -SN BKN012 OVC020
     FM250200 25017G27KT P6SM -SN SCT012 OVC022=



    US Dept of Commerce
    National Oceanic and Atmospheric Administration
    National Weather Service
    1325 East West Highway
    Silver Spring, MD 20910
    Page Author: NWS Internet Services Team
Disclaimer
Information Quality
Credits
Glossary
Privacy Policy
Freedom of Information Act (FOIA)
About Us
Career Opportunities